createdAt,value
2022-09-11T04:00:36.113Z,0.00
2022-09-11T04:01:36.049Z,0.00
2022-09-11T04:02:36.038Z,0.00
2022-09-11T04:03:36.025Z,0.00
2022-09-11T04:04:36.016Z,0.00
2022-09-11T04:05:36.030Z,0.00
2022-09-11T04:06:35.995Z,0.00
2022-09-11T04:07:35.980Z,0.00
2022-09-11T04:08:35.970Z,0.00
2022-09-11T04:09:35.957Z,0.00
2022-09-11T04:10:35.964Z,0.00
2022-09-11T04:11:40.968Z,0.00
2022-09-11T04:12:35.928Z,0.00
2022-09-11T04:13:35.913Z,0.00
2022-09-11T04:14:35.909Z,0.00
2022-09-11T04:15:35.911Z,0.00
2022-09-11T04:16:35.960Z,0.00
2022-09-11T04:17:35.874Z,0.00
2022-09-11T04:18:35.858Z,0.00
2022-09-11T04:19:35.889Z,0.00
2022-09-11T04:20:35.849Z,0.00
2022-09-11T04:21:35.827Z,0.00
2022-09-11T04:22:40.836Z,0.00
2022-09-11T04:23:35.807Z,0.00
2022-09-11T04:24:35.797Z,0.00
2022-09-11T04:25:35.778Z,0.00
2022-09-11T04:26:35.786Z,0.00
2022-09-11T04:27:35.769Z,0.00
2022-09-11T04:28:35.750Z,0.00
2022-09-11T04:29:35.741Z,0.00
2022-09-11T04:30:35.729Z,0.00
2022-09-11T04:31:35.761Z,0.00
2022-09-11T04:32:35.727Z,0.00
2022-09-11T04:33:40.717Z,4.00
2022-09-11T04:34:35.690Z,4.00
2022-09-11T04:35:35.667Z,0.00
2022-09-11T04:36:35.669Z,4.00
2022-09-11T04:37:35.646Z,4.00
2022-09-11T04:38:35.636Z,4.00
2022-09-11T04:39:35.691Z,4.00
2022-09-11T04:40:35.726Z,4.00
2022-09-11T04:41:35.611Z,8.00
2022-09-11T04:42:35.593Z,4.00
2022-09-11T04:43:35.582Z,8.00
2022-09-11T04:44:40.593Z,8.00
2022-09-11T04:45:35.601Z,8.00
2022-09-11T04:46:35.549Z,12.00
2022-09-11T04:47:35.545Z,12.00
2022-09-11T04:48:35.541Z,16.00
2022-09-11T04:49:35.516Z,20.00
2022-09-11T04:50:35.512Z,20.00
2022-09-11T04:51:35.489Z,20.00
2022-09-11T04:52:35.500Z,24.00
2022-09-11T04:53:35.466Z,28.00
2022-09-11T04:54:35.476Z,32.00
2022-09-11T04:55:40.478Z,40.00
2022-09-11T04:56:35.441Z,40.00
2022-09-11T04:57:35.425Z,44.00
2022-09-11T04:58:35.419Z,48.00
2022-09-11T04:59:35.410Z,56.00
2022-09-11T05:00:35.406Z,56.00
2022-09-11T05:01:35.380Z,60.00
2022-09-11T05:02:35.368Z,68.00
2022-09-11T05:03:35.357Z,76.00
2022-09-11T05:04:35.373Z,80.00
2022-09-11T05:05:35.370Z,84.00
2022-09-11T05:06:40.343Z,88.00
2022-09-11T05:07:35.311Z,88.00
2022-09-11T05:08:35.300Z,100.00
2022-09-11T05:09:35.294Z,112.00
2022-09-11T05:10:35.276Z,124.00
2022-09-11T05:11:35.279Z,132.00
2022-09-11T05:12:35.258Z,144.00
2022-09-11T05:13:36.580Z,148.00
2022-09-11T05:14:35.233Z,164.00
2022-09-11T05:15:35.223Z,168.00
2022-09-11T05:16:35.278Z,168.00
2022-09-11T05:17:40.231Z,168.00
2022-09-11T05:18:35.189Z,184.00
2022-09-11T05:19:35.177Z,200.00
2022-09-11T05:20:35.184Z,192.00
2022-09-11T05:21:35.172Z,208.00
2022-09-11T05:22:35.145Z,224.00
2022-09-11T05:23:35.132Z,240.00
2022-09-11T05:24:35.123Z,240.00
2022-09-11T05:25:35.112Z,196.00
2022-09-11T05:26:35.113Z,188.00
2022-09-11T05:27:35.091Z,192.00
2022-09-11T05:28:40.109Z,196.00
2022-09-11T05:29:35.333Z,192.00
2022-09-11T05:30:35.629Z,200.00
2022-09-11T05:31:35.112Z,188.00
2022-09-11T05:32:35.030Z,204.00
2022-09-11T05:33:35.021Z,208.00
2022-09-11T05:34:35.011Z,228.00
2022-09-11T05:35:34.998Z,184.00
2022-09-11T05:36:35.025Z,164.00
2022-09-11T05:37:34.977Z,168.00
2022-09-11T05:38:35.010Z,176.00
2022-09-11T05:39:40.000Z,204.00
2022-09-11T05:40:34.958Z,216.00
2022-09-11T05:41:34.943Z,232.00
2022-09-11T05:42:34.918Z,240.00
2022-09-11T05:43:34.909Z,276.00
2022-09-11T05:44:34.896Z,288.00
2022-09-11T05:45:34.946Z,292.00
2022-09-11T05:46:34.883Z,308.00
2022-09-11T05:47:34.878Z,348.00
2022-09-11T05:48:34.851Z,380.00
2022-09-11T05:49:34.844Z,396.00
2022-09-11T05:50:39.851Z,412.00
2022-09-11T05:51:34.834Z,444.00
2022-09-11T05:52:34.864Z,496.00
2022-09-11T05:53:34.895Z,512.00
2022-09-11T05:54:34.788Z,528.00
2022-09-11T05:55:34.778Z,516.00
2022-09-11T05:56:34.775Z,504.00
2022-09-11T05:57:34.762Z,504.00
2022-09-11T05:58:34.741Z,532.00
2022-09-11T05:59:34.734Z,568.00
2022-09-11T06:00:34.724Z,580.00
2022-09-11T06:01:39.792Z,612.00
2022-09-11T06:02:34.694Z,624.00
2022-09-11T06:03:34.689Z,624.00
2022-09-11T06:04:34.672Z,612.00
2022-09-11T06:05:34.664Z,560.00
2022-09-11T06:06:34.661Z,516.00
2022-09-11T06:07:34.641Z,484.00
2022-09-11T06:08:34.656Z,468.00
2022-09-11T06:09:34.621Z,476.00
2022-09-11T06:10:34.606Z,480.00
2022-09-11T06:11:34.608Z,488.00
2022-09-11T06:12:39.605Z,496.00
2022-09-11T06:13:34.575Z,508.00
2022-09-11T06:14:34.561Z,532.00
2022-09-11T06:15:46.609Z,560.00
2022-09-11T06:16:35.585Z,580.00
2022-09-11T06:17:34.546Z,600.00
2022-09-11T06:18:34.517Z,648.00
2022-09-11T06:19:34.508Z,660.00
2022-09-11T06:20:34.493Z,664.00
2022-09-11T06:21:34.495Z,680.00
2022-09-11T06:22:34.473Z,724.00
2022-09-11T06:23:39.583Z,776.00
2022-09-11T06:24:34.448Z,848.00
2022-09-11T06:25:34.440Z,920.00
2022-09-11T06:26:34.442Z,1000.00
2022-09-11T06:27:34.421Z,1016.00
2022-09-11T06:28:34.405Z,1040.00
2022-09-11T06:29:34.396Z,1064.00
2022-09-11T06:30:34.407Z,1096.00
2022-09-11T06:31:34.473Z,1112.00
2022-09-11T06:32:34.359Z,1120.00
2022-09-11T06:33:34.407Z,1128.00
2022-09-11T06:34:39.358Z,1148.00
2022-09-11T06:35:34.326Z,1192.00
2022-09-11T06:36:34.325Z,1208.00
2022-09-11T06:37:34.428Z,1220.00
2022-09-11T06:38:34.297Z,1228.00
2022-09-11T06:39:34.305Z,1232.00
2022-09-11T06:40:34.273Z,1260.00
2022-09-11T06:41:34.270Z,1316.00
2022-09-11T06:42:34.249Z,1364.00
2022-09-11T06:43:34.315Z,1408.00
2022-09-11T06:44:34.227Z,1484.00
2022-09-11T06:45:39.268Z,1536.00
2022-09-11T06:46:34.218Z,1612.00
2022-09-11T06:47:34.193Z,1696.00
2022-09-11T06:48:34.180Z,1788.00
2022-09-11T06:49:34.172Z,1980.00
2022-09-11T06:50:36.923Z,2024.00
2022-09-11T06:51:34.159Z,1992.00
2022-09-11T06:52:34.135Z,2088.00
2022-09-11T06:53:34.212Z,2408.00
2022-09-11T06:54:34.113Z,2500.00
2022-09-11T06:55:34.127Z,2648.00
2022-09-11T06:56:39.126Z,2504.00
2022-09-11T06:57:34.081Z,2076.00
2022-09-11T06:58:34.069Z,1852.00
2022-09-11T06:59:34.062Z,1984.00
2022-09-11T07:00:34.046Z,1968.00
2022-09-11T07:01:34.308Z,1776.00
2022-09-11T07:02:34.024Z,1476.00
2022-09-11T07:03:34.107Z,1248.00
2022-09-11T07:04:34.005Z,1264.00
2022-09-11T07:05:33.991Z,1468.00
2022-09-11T07:06:33.997Z,1336.00
2022-09-11T07:07:39.018Z,1436.00
2022-09-11T07:08:33.957Z,1352.00
2022-09-11T07:09:33.948Z,1132.00
2022-09-11T07:10:33.935Z,1376.00
2022-09-11T07:11:33.942Z,1284.00
2022-09-11T07:12:33.922Z,1416.00
2022-09-11T07:13:37.325Z,1380.00
2022-09-11T07:14:33.890Z,1368.00
2022-09-11T07:15:33.883Z,1484.00
2022-09-11T07:16:33.922Z,1440.00
2022-09-11T07:17:33.996Z,1528.00
2022-09-11T07:18:38.866Z,1600.00
2022-09-11T07:19:33.844Z,1892.00
2022-09-11T07:20:33.825Z,2176.00
2022-09-11T07:21:33.813Z,2360.00
2022-09-11T07:22:33.812Z,2336.00
2022-09-11T07:23:33.874Z,2132.00
2022-09-11T07:24:33.778Z,2048.00
2022-09-11T07:25:33.829Z,2112.00
2022-09-11T07:26:33.767Z,2048.00
2022-09-11T07:27:33.767Z,1992.00
2022-09-11T07:28:33.733Z,1988.00
2022-09-11T07:29:38.746Z,2012.00
2022-09-11T07:30:33.811Z,2048.00
2022-09-11T07:31:33.713Z,2084.00
2022-09-11T07:32:33.689Z,2020.00
2022-09-11T07:33:33.793Z,2012.00
2022-09-11T07:34:33.666Z,2036.00
2022-09-11T07:35:33.656Z,2008.00
2022-09-11T07:36:33.649Z,2032.00
2022-09-11T07:37:33.645Z,2092.00
2022-09-11T07:38:33.655Z,2284.00
2022-09-11T07:39:33.619Z,2232.00
2022-09-11T07:40:38.622Z,2356.00
2022-09-11T07:41:33.593Z,2572.00
2022-09-11T07:42:33.602Z,2640.00
2022-09-11T07:43:33.665Z,2476.00
2022-09-11T07:44:33.556Z,2388.00
2022-09-11T07:45:33.566Z,1908.00
2022-09-11T07:46:33.546Z,2056.00
2022-09-11T07:47:33.546Z,3092.00
2022-09-11T07:48:33.513Z,2860.00
2022-09-11T07:49:33.534Z,2452.00
2022-09-11T07:50:33.490Z,2428.00
2022-09-11T07:51:38.521Z,3748.00
2022-09-11T07:52:33.501Z,3656.00
2022-09-11T07:53:33.516Z,3572.00
2022-09-11T07:54:33.446Z,3376.00
2022-09-11T07:55:33.436Z,3368.00
2022-09-11T07:56:33.427Z,3600.00
2022-09-11T07:57:33.424Z,4052.00
2022-09-11T07:58:33.402Z,4468.00
2022-09-11T07:59:33.410Z,4876.00
2022-09-11T08:00:36.969Z,4232.00
2022-09-11T08:01:33.442Z,5104.00
2022-09-11T08:02:38.441Z,4948.00
2022-09-11T08:03:33.433Z,4244.00
2022-09-11T08:04:33.365Z,4264.00
2022-09-11T08:05:33.379Z,4508.00
2022-09-11T08:06:33.329Z,4252.00
2022-09-11T08:07:33.313Z,4372.00
2022-09-11T08:08:33.291Z,5056.00
2022-09-11T08:09:33.284Z,5808.00
2022-09-11T08:10:33.269Z,5876.00
2022-09-11T08:11:33.259Z,6184.00
2022-09-11T08:12:33.255Z,6416.00
2022-09-11T08:13:38.257Z,5688.00
2022-09-11T08:14:33.228Z,4964.00
2022-09-11T08:15:33.232Z,4016.00
2022-09-11T08:16:33.269Z,2776.00
2022-09-11T08:17:33.200Z,1896.00
2022-09-11T08:18:33.179Z,1184.00
2022-09-11T08:19:33.167Z,972.00
2022-09-11T08:20:33.158Z,1132.00
2022-09-11T08:21:33.148Z,1164.00
2022-09-11T08:22:33.146Z,1324.00
2022-09-11T08:23:33.211Z,1552.00
2022-09-11T08:24:38.136Z,1756.00
2022-09-11T08:25:33.125Z,1744.00
2022-09-11T08:26:33.133Z,1788.00
2022-09-11T08:27:33.089Z,2016.00
2022-09-11T08:28:33.066Z,2708.00
2022-09-11T08:29:33.056Z,3020.00
2022-09-11T08:30:33.045Z,3160.00
2022-09-11T08:31:33.081Z,3180.00
2022-09-11T08:32:33.032Z,3460.00
2022-09-11T08:33:33.065Z,3244.00
2022-09-11T08:34:32.998Z,2880.00
2022-09-11T08:35:38.033Z,2332.00
2022-09-11T08:36:32.993Z,1960.00
2022-09-11T08:37:32.979Z,1984.00
2022-09-11T08:38:32.957Z,1776.00
2022-09-11T08:39:32.944Z,1560.00
2022-09-11T08:40:32.972Z,1384.00
2022-09-11T08:41:32.944Z,1196.00
2022-09-11T08:42:32.924Z,1064.00
2022-09-11T08:43:32.903Z,1044.00
2022-09-11T08:44:35.135Z,988.00
2022-09-11T08:45:33.949Z,932.00
2022-09-11T08:46:37.903Z,880.00
2022-09-11T08:47:32.863Z,820.00
2022-09-11T08:48:32.839Z,832.00
2022-09-11T08:49:32.883Z,888.00
2022-09-11T08:50:32.821Z,820.00
2022-09-11T08:51:32.831Z,808.00
2022-09-11T08:52:32.806Z,924.00
2022-09-11T08:53:32.948Z,1048.00
2022-09-11T08:54:32.772Z,1136.00
2022-09-11T08:55:32.766Z,1300.00
2022-09-11T08:56:32.752Z,1636.00
2022-09-11T08:57:37.776Z,2556.00
2022-09-11T08:58:32.758Z,3068.00
2022-09-11T08:59:32.727Z,3468.00
2022-09-11T09:00:32.713Z,2772.00
2022-09-11T09:01:32.737Z,2536.00
2022-09-11T09:02:32.787Z,2460.00
2022-09-11T09:03:32.672Z,2428.00
2022-09-11T09:04:32.684Z,2488.00
2022-09-11T09:05:32.657Z,3332.00
2022-09-11T09:06:32.637Z,3872.00
2022-09-11T09:07:32.686Z,4112.00
2022-09-11T09:08:37.636Z,4388.00
2022-09-11T09:09:35.124Z,4720.00
2022-09-11T09:10:32.594Z,5700.00
2022-09-11T09:11:32.616Z,4268.00
2022-09-11T09:12:32.729Z,3400.00
2022-09-11T09:13:32.559Z,2916.00
2022-09-11T09:14:32.797Z,2668.00
2022-09-11T09:15:32.539Z,2444.00
2022-09-11T09:16:32.607Z,1708.00
2022-09-11T09:17:32.534Z,1552.00
2022-09-11T09:18:32.626Z,1632.00
2022-09-11T09:19:37.525Z,1580.00
2022-09-11T09:20:32.510Z,1528.00
2022-09-11T09:21:32.469Z,1808.00
2022-09-11T09:22:32.484Z,1832.00
2022-09-11T09:23:32.459Z,1688.00
2022-09-11T09:24:32.507Z,1732.00
2022-09-11T09:25:32.434Z,1944.00
2022-09-11T09:26:37.760Z,2232.00
2022-09-11T09:27:33.425Z,2340.00
2022-09-11T09:28:32.535Z,2716.00
2022-09-11T09:29:32.379Z,2684.00
2022-09-11T09:30:37.393Z,2464.00
2022-09-11T09:31:32.385Z,2508.00
2022-09-11T09:32:32.355Z,3112.00
2022-09-11T09:33:32.367Z,3368.00
2022-09-11T09:34:32.366Z,3872.00
2022-09-11T09:35:32.313Z,4160.00
2022-09-11T09:36:32.328Z,4468.00
2022-09-11T09:37:32.290Z,5096.00
2022-09-11T09:38:32.332Z,4752.00
2022-09-11T09:39:32.270Z,5048.00
2022-09-11T09:40:32.261Z,5632.00
2022-09-11T09:41:37.345Z,5652.00
2022-09-11T09:42:32.289Z,5700.00
2022-09-11T09:43:32.265Z,7276.00
2022-09-11T09:44:32.306Z,6772.00
2022-09-11T09:45:32.279Z,5600.00
2022-09-11T09:46:32.335Z,5996.00
2022-09-11T09:47:32.193Z,5656.00
2022-09-11T09:48:32.198Z,5368.00
2022-09-11T09:49:32.154Z,5328.00
2022-09-11T09:50:32.174Z,5280.00
2022-09-11T09:51:32.134Z,5156.00
2022-09-11T09:52:37.157Z,4976.00
2022-09-11T09:53:32.111Z,4376.00
2022-09-11T09:54:32.103Z,4508.00
2022-09-11T09:55:32.094Z,4904.00
2022-09-11T09:56:32.078Z,6044.00
2022-09-11T09:57:32.066Z,7240.00
2022-09-11T09:58:32.072Z,6464.00
2022-09-11T09:59:32.045Z,6408.00
2022-09-11T10:00:32.038Z,7440.00
2022-09-11T10:01:32.091Z,7036.00
2022-09-11T10:02:32.074Z,7028.00
2022-09-11T10:03:37.037Z,6440.00
2022-09-11T10:04:32.090Z,6416.00
2022-09-11T10:05:31.981Z,5392.00
2022-09-11T10:06:32.117Z,5360.00
2022-09-11T10:07:31.963Z,7052.00
2022-09-11T10:08:31.980Z,6264.00
2022-09-11T10:09:31.942Z,6764.00
2022-09-11T10:10:31.974Z,4256.00
2022-09-11T10:11:31.922Z,4320.00
2022-09-11T10:12:31.902Z,5468.00
2022-09-11T10:13:31.927Z,4860.00
2022-09-11T10:14:52.682Z,6940.00
2022-09-11T10:15:32.952Z,4584.00
2022-09-11T10:16:31.857Z,4164.00
2022-09-11T10:17:31.845Z,3872.00
2022-09-11T10:18:31.848Z,3960.00
2022-09-11T10:19:31.826Z,4924.00
2022-09-11T10:20:31.842Z,5704.00
2022-09-11T10:21:31.802Z,7196.00
2022-09-11T10:22:31.833Z,6228.00
2022-09-11T10:23:31.810Z,5828.00
2022-09-11T10:24:31.772Z,5708.00
2022-09-11T10:25:36.777Z,5560.00
2022-09-11T10:26:31.750Z,6036.00
2022-09-11T10:27:31.733Z,6716.00
2022-09-11T10:28:31.745Z,7252.00
2022-09-11T10:29:31.738Z,7344.00
2022-09-11T10:30:31.712Z,7984.00
2022-09-11T10:31:31.692Z,7000.00
2022-09-11T10:32:31.677Z,7308.00
2022-09-11T10:33:31.667Z,6964.00
2022-09-11T10:34:31.673Z,6656.00
2022-09-11T10:35:31.646Z,6296.00
2022-09-11T10:36:36.655Z,5680.00
2022-09-11T10:37:31.632Z,5532.00
2022-09-11T10:38:31.634Z,13784.00
2022-09-11T10:39:31.610Z,19552.00
2022-09-11T10:40:31.594Z,14336.00
2022-09-11T10:41:31.579Z,7804.00
2022-09-11T10:42:31.568Z,6428.00
2022-09-11T10:43:31.560Z,6628.00
2022-09-11T10:44:31.565Z,7340.00
2022-09-11T10:45:31.624Z,15424.00
2022-09-11T10:46:31.527Z,13928.00
2022-09-11T10:47:36.532Z,20416.00
2022-09-11T10:48:31.515Z,12712.00
2022-09-11T10:49:31.527Z,8744.00
2022-09-11T10:50:31.480Z,8116.00
2022-09-11T10:51:31.466Z,8108.00
2022-09-11T10:52:31.471Z,7044.00
2022-09-11T10:53:31.458Z,6864.00
2022-09-11T10:54:31.468Z,7704.00
2022-09-11T10:55:31.616Z,6368.00
2022-09-11T10:56:31.417Z,6308.00
2022-09-11T10:57:31.405Z,17728.00
2022-09-11T10:58:36.432Z,9836.00
2022-09-11T10:59:31.380Z,5784.00
2022-09-11T11:00:31.370Z,5816.00
2022-09-11T11:01:31.437Z,7132.00
2022-09-11T11:02:31.372Z,7052.00
2022-09-11T11:03:31.346Z,6632.00
2022-09-11T11:04:31.329Z,7880.00
2022-09-11T11:05:31.311Z,6204.00
2022-09-11T11:06:31.312Z,6844.00
2022-09-11T11:07:31.292Z,7272.00
2022-09-11T11:08:31.303Z,6804.00
2022-09-11T11:09:36.318Z,5320.00
2022-09-11T11:10:31.259Z,5136.00
2022-09-11T11:11:31.248Z,5356.00
2022-09-11T11:12:31.247Z,4796.00
2022-09-11T11:13:31.242Z,13888.00
2022-09-11T11:14:31.221Z,3048.00
2022-09-11T11:15:31.202Z,2724.00
2022-09-11T11:16:31.198Z,2908.00
2022-09-11T11:17:31.185Z,4024.00
2022-09-11T11:18:31.192Z,5312.00
2022-09-11T11:19:31.158Z,6924.00
2022-09-11T11:20:36.172Z,7980.00
2022-09-11T11:21:31.138Z,8360.00
2022-09-11T11:22:31.129Z,8700.00
2022-09-11T11:23:31.128Z,7220.00
2022-09-11T11:24:31.107Z,6240.00
2022-09-11T11:25:31.113Z,5860.00
2022-09-11T11:26:31.093Z,5824.00
2022-09-11T11:27:31.072Z,16224.00
2022-09-11T11:28:31.071Z,4044.00
2022-09-11T11:29:31.051Z,3312.00
2022-09-11T11:30:31.037Z,2448.00
2022-09-11T11:31:36.051Z,2048.00
2022-09-11T11:32:31.018Z,1932.00
2022-09-11T11:33:31.016Z,1816.00
2022-09-11T11:34:30.998Z,1636.00
2022-09-11T11:35:30.981Z,1440.00
2022-09-11T11:36:30.972Z,1412.00
2022-09-11T11:37:30.963Z,1612.00
2022-09-11T11:38:30.959Z,1972.00
2022-09-11T11:39:30.949Z,2164.00
2022-09-11T11:40:30.933Z,2456.00
2022-09-11T11:41:30.934Z,2380.00
2022-09-11T11:42:35.954Z,2716.00
2022-09-11T11:43:30.897Z,2612.00
2022-09-11T11:44:30.909Z,3128.00
2022-09-11T11:45:30.904Z,3808.00
2022-09-11T11:46:30.864Z,3772.00
2022-09-11T11:47:30.851Z,2572.00
2022-09-11T11:48:30.855Z,2564.00
2022-09-11T11:49:30.841Z,2340.00
2022-09-11T11:50:31.871Z,2460.00
2022-09-11T11:51:30.811Z,3116.00
2022-09-11T11:52:30.798Z,3952.00
2022-09-11T11:53:35.817Z,4536.00
2022-09-11T11:54:30.787Z,3540.00
2022-09-11T11:55:30.767Z,3704.00
2022-09-11T11:56:30.758Z,5032.00
2022-09-11T11:57:30.762Z,6488.00
2022-09-11T11:58:30.739Z,4520.00
2022-09-11T11:59:30.732Z,3504.00
2022-09-11T12:00:30.713Z,3148.00
2022-09-11T12:01:30.718Z,2804.00
2022-09-11T12:02:30.725Z,3072.00
2022-09-11T12:03:30.774Z,3164.00
2022-09-11T12:04:35.711Z,3572.00
2022-09-11T12:05:30.660Z,3596.00
2022-09-11T12:06:30.647Z,3344.00
2022-09-11T12:07:30.639Z,3152.00
2022-09-11T12:08:30.626Z,3076.00
2022-09-11T12:09:33.597Z,3380.00
2022-09-11T12:10:30.604Z,26336.00
2022-09-11T12:11:30.613Z,3348.00
2022-09-11T12:12:30.591Z,2920.00
2022-09-11T12:13:30.599Z,2692.00
2022-09-11T12:14:30.570Z,2476.00
2022-09-11T12:15:35.617Z,2412.00
2022-09-11T12:16:30.577Z,2400.00
2022-09-11T12:17:30.528Z,2376.00
2022-09-11T12:18:30.539Z,2292.00
2022-09-11T12:19:30.541Z,2344.00
2022-09-11T12:20:30.493Z,2416.00
2022-09-11T12:21:30.544Z,2504.00
2022-09-11T12:22:30.477Z,2660.00
2022-09-11T12:23:30.464Z,2536.00
2022-09-11T12:24:30.489Z,2800.00
2022-09-11T12:25:30.438Z,3008.00
2022-09-11T12:26:35.449Z,3244.00
2022-09-11T12:27:30.428Z,3260.00
2022-09-11T12:28:30.408Z,3940.00
2022-09-11T12:29:30.427Z,5768.00
2022-09-11T12:30:30.382Z,6976.00
2022-09-11T12:31:30.393Z,6572.00
2022-09-11T12:32:30.366Z,5624.00
2022-09-11T12:33:30.354Z,4660.00
2022-09-11T12:34:30.349Z,4628.00
2022-09-11T12:35:30.327Z,4768.00
2022-09-11T12:36:30.320Z,4728.00
2022-09-11T12:37:35.327Z,3452.00
2022-09-11T12:38:30.296Z,4420.00
2022-09-11T12:39:30.298Z,3156.00
2022-09-11T12:40:30.270Z,4932.00
2022-09-11T12:41:30.266Z,6288.00
2022-09-11T12:42:30.273Z,8316.00
2022-09-11T12:43:30.237Z,8344.00
2022-09-11T12:44:30.238Z,8352.00
2022-09-11T12:45:30.290Z,6364.00
2022-09-11T12:46:30.209Z,4772.00
2022-09-11T12:47:30.204Z,4876.00
2022-09-11T12:48:35.210Z,3600.00
2022-09-11T12:49:30.211Z,2780.00
2022-09-11T12:50:30.161Z,2772.00
2022-09-11T12:51:30.148Z,2952.00
2022-09-11T12:52:30.142Z,2288.00
2022-09-11T12:53:30.185Z,2184.00
2022-09-11T12:54:30.130Z,2220.00
2022-09-11T12:55:30.193Z,2380.00
2022-09-11T12:56:30.107Z,2308.00
2022-09-11T12:57:30.091Z,2212.00
2022-09-11T12:58:30.070Z,2068.00
2022-09-11T12:59:35.096Z,2048.00
2022-09-11T13:00:30.049Z,2076.00
2022-09-11T13:01:30.169Z,2016.00
2022-09-11T13:02:30.097Z,2008.00
2022-09-11T13:03:30.017Z,2192.00
2022-09-11T13:04:30.016Z,2200.00
2022-09-11T13:05:30.003Z,2128.00
2022-09-11T13:06:29.983Z,2172.00
2022-09-11T13:07:29.974Z,2480.00
2022-09-11T13:08:29.962Z,2700.00
2022-09-11T13:09:29.975Z,2708.00
2022-09-11T13:10:34.961Z,2888.00
2022-09-11T13:11:29.925Z,2988.00
2022-09-11T13:12:29.925Z,3204.00
2022-09-11T13:13:29.918Z,3092.00
2022-09-11T13:14:29.936Z,2776.00
2022-09-11T13:15:29.897Z,2460.00
2022-09-11T13:16:29.877Z,2236.00
2022-09-11T13:17:29.879Z,2080.00
2022-09-11T13:18:29.861Z,1716.00
2022-09-11T13:19:29.838Z,1564.00
2022-09-11T13:20:29.841Z,1440.00
2022-09-11T13:21:34.838Z,1420.00
2022-09-11T13:22:29.805Z,1448.00
2022-09-11T13:23:29.799Z,1432.00
2022-09-11T13:24:29.788Z,1452.00
2022-09-11T13:25:29.781Z,1420.00
2022-09-11T13:26:29.763Z,1368.00
2022-09-11T13:27:29.747Z,1260.00
2022-09-11T13:28:29.738Z,1180.00
2022-09-11T13:29:29.783Z,1188.00
2022-09-11T13:30:29.724Z,1184.00
2022-09-11T13:31:29.779Z,1144.00
2022-09-11T13:32:34.744Z,1140.00
2022-09-11T13:33:29.695Z,1108.00
2022-09-11T13:34:29.681Z,1108.00
2022-09-11T13:35:29.673Z,1108.00
2022-09-11T13:36:29.660Z,1144.00
2022-09-11T13:37:29.644Z,1256.00
2022-09-11T13:38:29.629Z,1644.00
2022-09-11T13:39:29.615Z,1960.00
2022-09-11T13:40:29.618Z,2476.00
2022-09-11T13:41:29.600Z,2416.00
2022-09-11T13:42:29.580Z,2244.00
2022-09-11T13:43:34.603Z,2140.00
2022-09-11T13:44:29.557Z,2032.00
2022-09-11T13:45:29.657Z,2172.00
2022-09-11T13:46:29.539Z,2516.00
2022-09-11T13:47:29.547Z,2560.00
2022-09-11T13:48:29.604Z,2844.00
2022-09-11T13:49:29.528Z,3096.00
2022-09-11T13:50:29.520Z,3184.00
2022-09-11T13:51:29.487Z,3284.00
2022-09-11T13:52:29.491Z,3116.00
2022-09-11T13:53:29.480Z,3152.00
2022-09-11T13:54:34.469Z,3248.00
2022-09-11T13:55:29.453Z,3044.00
2022-09-11T13:56:29.426Z,3072.00
2022-09-11T13:57:29.415Z,3140.00
2022-09-11T13:58:29.404Z,3012.00
2022-09-11T13:59:29.395Z,2764.00
2022-09-11T14:00:29.398Z,2596.00
2022-09-11T14:01:29.481Z,2784.00
2022-09-11T14:02:29.395Z,2480.00
2022-09-11T14:03:29.351Z,2512.00
2022-09-11T14:04:29.355Z,2516.00
2022-09-11T14:05:34.362Z,2444.00
2022-09-11T14:06:29.315Z,2440.00
2022-09-11T14:07:29.306Z,2596.00
2022-09-11T14:08:29.294Z,2712.00
2022-09-11T14:09:29.284Z,2956.00
2022-09-11T14:10:29.289Z,3224.00
2022-09-11T14:11:29.266Z,3300.00
2022-09-11T14:12:29.263Z,3396.00
2022-09-11T14:13:29.240Z,3580.00
2022-09-11T14:14:29.227Z,3640.00
2022-09-11T14:15:29.229Z,3804.00
2022-09-11T14:16:34.226Z,3440.00
2022-09-11T14:17:29.194Z,3492.00
2022-09-11T14:18:29.183Z,3660.00
2022-09-11T14:19:29.186Z,3620.00
2022-09-11T14:20:29.190Z,3640.00
2022-09-11T14:21:29.156Z,3696.00
2022-09-11T14:22:29.140Z,3688.00
2022-09-11T14:23:29.144Z,4004.00
2022-09-11T14:24:29.132Z,4088.00
2022-09-11T14:25:29.126Z,4136.00
2022-09-11T14:26:29.093Z,4248.00
2022-09-11T14:27:34.107Z,4296.00
2022-09-11T14:28:29.073Z,4312.00
2022-09-11T14:29:29.067Z,4276.00
2022-09-11T14:30:30.645Z,4268.00
2022-09-11T14:31:29.087Z,4376.00
2022-09-11T14:32:29.035Z,4340.00
2022-09-11T14:33:29.019Z,4156.00
2022-09-11T14:34:29.014Z,3856.00
2022-09-11T14:35:29.025Z,3324.00
2022-09-11T14:36:29.008Z,3372.00
2022-09-11T14:37:28.981Z,3432.00
2022-09-11T14:38:33.986Z,2960.00
2022-09-11T14:39:28.955Z,2500.00
2022-09-11T14:40:28.965Z,2120.00
2022-09-11T14:41:28.933Z,2440.00
2022-09-11T14:42:28.919Z,2080.00
2022-09-11T14:43:28.911Z,2316.00
2022-09-11T14:44:28.899Z,2620.00
2022-09-11T14:45:28.920Z,2448.00
2022-09-11T14:46:28.940Z,2288.00
2022-09-11T14:47:28.867Z,2288.00
2022-09-11T14:48:28.878Z,2196.00
2022-09-11T14:49:33.869Z,1876.00
2022-09-11T14:50:28.852Z,2028.00
2022-09-11T14:51:28.831Z,1984.00
2022-09-11T14:52:28.832Z,1936.00
2022-09-11T14:53:28.802Z,1904.00
2022-09-11T14:54:28.793Z,1844.00
2022-09-11T14:55:28.791Z,1788.00
2022-09-11T14:56:28.768Z,1720.00
2022-09-11T14:57:28.760Z,1332.00
2022-09-11T14:58:28.750Z,1252.00
2022-09-11T14:59:28.737Z,1248.00
2022-09-11T15:00:33.788Z,1156.00
2022-09-11T15:01:28.739Z,1148.00
2022-09-11T15:02:28.704Z,1024.00
2022-09-11T15:03:28.739Z,1008.00
2022-09-11T15:04:28.682Z,1016.00
2022-09-11T15:05:28.682Z,1216.00
2022-09-11T15:06:28.664Z,1072.00
2022-09-11T15:07:28.656Z,1108.00
2022-09-11T15:08:28.664Z,1084.00
2022-09-11T15:09:28.631Z,1256.00
2022-09-11T15:10:28.630Z,1064.00
2022-09-11T15:11:38.747Z,1020.00
2022-09-11T15:12:29.592Z,1032.00
2022-09-11T15:13:28.586Z,1096.00
2022-09-11T15:14:54.330Z,1108.00
2022-09-11T15:15:29.584Z,1200.00
2022-09-11T15:16:28.592Z,1140.00
2022-09-11T15:17:28.540Z,1060.00
2022-09-11T15:18:28.529Z,1068.00
2022-09-11T15:19:28.520Z,1212.00
2022-09-11T15:20:28.519Z,1308.00
2022-09-11T15:21:28.500Z,1276.00
2022-09-11T15:22:33.507Z,1360.00
2022-09-11T15:23:28.475Z,1236.00
2022-09-11T15:24:28.485Z,1244.00
2022-09-11T15:25:28.471Z,1428.00
2022-09-11T15:26:28.442Z,1364.00
2022-09-11T15:27:28.433Z,1200.00
2022-09-11T15:28:28.418Z,1164.00
2022-09-11T15:29:31.532Z,1192.00
2022-09-11T15:30:28.396Z,1388.00
2022-09-11T15:31:28.446Z,1316.00
2022-09-11T15:32:28.379Z,1404.00
2022-09-11T15:33:33.389Z,1480.00
2022-09-11T15:34:28.352Z,1564.00
2022-09-11T15:35:32.207Z,1492.00
2022-09-11T15:36:28.349Z,1464.00
2022-09-11T15:37:28.327Z,1472.00
2022-09-11T15:38:28.309Z,1364.00
2022-09-11T15:39:28.303Z,1296.00
2022-09-11T15:40:28.307Z,1256.00
2022-09-11T15:41:28.292Z,1236.00
2022-09-11T15:42:28.264Z,1216.00
2022-09-11T15:43:28.255Z,1192.00
2022-09-11T15:44:33.278Z,1176.00
2022-09-11T15:45:28.286Z,1164.00
2022-09-11T15:46:28.230Z,1164.00
2022-09-11T15:47:28.218Z,1168.00
2022-09-11T15:48:28.201Z,1168.00
2022-09-11T15:49:28.197Z,1164.00
2022-09-11T15:50:28.176Z,1156.00
2022-09-11T15:51:28.178Z,1144.00
2022-09-11T15:52:28.155Z,1140.00
2022-09-11T15:53:28.144Z,1132.00
2022-09-11T15:54:28.130Z,1128.00
2022-09-11T15:55:33.160Z,1124.00
2022-09-11T15:56:28.122Z,1120.00
2022-09-11T15:57:28.098Z,1120.00
2022-09-11T15:58:28.086Z,1108.00
2022-09-11T15:59:28.091Z,1096.00
2022-09-11T16:00:28.078Z,1092.00
2022-09-11T16:01:28.072Z,1080.00
2022-09-11T16:02:28.061Z,1080.00
2022-09-11T16:03:28.033Z,1068.00
2022-09-11T16:04:28.027Z,1060.00
2022-09-11T16:05:28.012Z,1048.00
2022-09-11T16:06:33.034Z,1032.00
2022-09-11T16:07:27.995Z,1028.00
2022-09-11T16:08:27.973Z,1012.00
2022-09-11T16:09:27.964Z,1004.00
2022-09-11T16:10:27.955Z,992.00
2022-09-11T16:11:27.977Z,972.00
2022-09-11T16:12:27.929Z,964.00
2022-09-11T16:13:27.921Z,952.00